createdAt,value
2023-04-27T00:04:24.540Z,86
2023-04-27T00:09:23.583Z,85
2023-04-27T00:14:23.659Z,85
2023-04-27T00:19:20.703Z,85
2023-04-27T00:24:20.410Z,85
2023-04-27T00:29:20.569Z,85
2023-04-27T00:34:20.174Z,85
2023-04-27T00:39:19.478Z,85
2023-04-27T00:44:19.207Z,86
2023-04-27T00:49:19.325Z,87
2023-04-27T00:54:18.541Z,87
2023-04-27T00:59:05.705Z,87
2023-04-27T01:04:13.449Z,88
2023-04-27T01:09:13.728Z,88
2023-04-27T01:14:13.521Z,89
2023-04-27T01:19:11.254Z,90
2023-04-27T01:24:10.812Z,90
2023-04-27T01:29:11.658Z,91
2023-04-27T01:34:10.055Z,91
2023-04-27T01:39:09.792Z,91
2023-04-27T01:44:10.061Z,91
2023-04-27T01:48:57.629Z,92
2023-04-27T01:53:57.044Z,92
2023-04-27T01:58:57.402Z,92
2023-04-27T02:03:57.852Z,92
2023-04-27T02:08:56.191Z,92
2023-04-27T02:13:56.153Z,92
2023-04-27T02:18:56.139Z,93
2023-04-27T02:23:56.087Z,93
2023-04-27T02:28:57.661Z,93
2023-04-27T02:33:53.620Z,93
2023-04-27T02:38:53.545Z,93
2023-04-27T02:43:53.152Z,93
2023-04-27T02:48:52.816Z,92
2023-04-27T02:53:50.200Z,92
2023-04-27T02:58:49.679Z,92
2023-04-27T03:03:50.271Z,92
2023-04-27T03:08:49.458Z,92
2023-04-27T03:13:47.641Z,92
2023-04-27T03:18:47.632Z,92
2023-04-27T03:23:47.053Z,92
2023-04-27T03:28:47.222Z,91
2023-04-27T03:33:44.666Z,91
2023-04-27T03:38:44.148Z,90
2023-04-27T03:43:43.425Z,89
2023-04-27T03:48:42.873Z,89
2023-04-27T03:53:43.169Z,88
2023-04-27T03:58:42.313Z,88
2023-04-27T04:59:23.526Z,87
2023-04-27T05:04:24.179Z,87
2023-04-27T05:09:25.265Z,87
2023-04-27T05:14:21.438Z,87
2023-04-27T05:19:21.642Z,86
2023-04-27T05:24:21.040Z,85
2023-04-27T05:29:21.121Z,85
2023-04-27T05:34:18.562Z,84
2023-04-27T05:42:39.316Z,84
2023-04-27T05:48:28.971Z,83
2023-04-27T05:53:29.204Z,82
2023-04-27T05:58:28.702Z,82
2023-04-27T06:04:49.668Z,82
2023-04-27T06:09:49.852Z,81
2023-04-27T06:24:47.168Z,80
2023-04-27T06:44:44.037Z,79
2023-04-27T06:49:43.908Z,78
2023-04-27T06:54:43.471Z,77
2023-04-27T07:04:12.977Z,75
2023-04-27T07:09:26.858Z,74
2023-04-27T07:19:12.518Z,74
2023-04-27T07:24:13.274Z,71
2023-04-27T07:34:12.051Z,71
2023-04-27T07:39:12.620Z,68
2023-04-27T07:49:12.426Z,64
2023-04-27T07:54:12.456Z,63
2023-04-27T08:04:11.262Z,60
2023-04-27T08:09:11.208Z,58
2023-04-27T08:14:12.634Z,58
2023-04-27T08:19:21.296Z,57
2023-04-27T08:24:09.267Z,57
2023-04-27T08:29:19.814Z,57
2023-04-27T08:33:57.220Z,58
2023-04-27T08:38:57.138Z,57
2023-04-27T08:43:59.100Z,54
2023-04-27T08:48:58.762Z,56
2023-04-27T08:53:55.387Z,54
2023-04-27T08:58:55.391Z,53
2023-04-27T09:59:30.178Z,48
2023-04-27T10:04:30.286Z,47
2023-04-27T10:09:29.349Z,47
2023-04-27T10:14:28.978Z,51
2023-04-27T10:19:28.734Z,49
2023-04-27T10:24:28.709Z,52
2023-04-27T10:29:26.504Z,45
2023-04-27T10:34:26.292Z,47
2023-04-27T10:39:32.908Z,45
2023-04-27T10:44:24.513Z,48
2023-04-27T10:49:23.356Z,45
2023-04-27T10:54:23.303Z,48
2023-04-27T10:59:12.843Z,48
2023-04-27T11:04:12.762Z,44
2023-04-27T11:09:09.640Z,48
2023-04-27T11:14:09.481Z,45
2023-04-27T11:19:10.381Z,44
2023-04-27T11:24:09.358Z,46
2023-04-27T11:29:08.551Z,48
2023-04-27T11:34:08.114Z,45
2023-04-27T11:39:08.205Z,43
2023-04-27T11:44:07.886Z,44
2023-04-27T11:49:08.517Z,43
2023-04-27T11:54:05.437Z,43
2023-04-27T11:59:05.715Z,42
2023-04-27T12:04:05.809Z,44
2023-04-27T12:09:04.658Z,42
2023-04-27T12:14:15.061Z,40
2023-04-27T12:19:14.376Z,41
2023-04-27T12:24:15.973Z,41
2023-04-27T12:29:13.312Z,43
2023-04-27T12:34:12.898Z,42
2023-04-27T12:39:14.189Z,42
2023-04-27T12:44:11.209Z,41
2023-04-27T12:49:10.806Z,43
2023-04-27T12:54:12.952Z,41
2023-04-27T12:59:09.446Z,43
2023-04-27T13:04:09.427Z,39
2023-04-27T13:09:08.954Z,42
2023-04-27T13:13:56.607Z,41
2023-04-27T13:18:56.423Z,41
2023-04-27T13:23:56.079Z,42
2023-04-27T13:28:57.135Z,40
2023-04-27T13:33:53.616Z,41
2023-04-27T13:38:53.040Z,40
2023-04-27T13:43:52.617Z,39
2023-04-27T13:48:52.542Z,40
2023-04-27T13:53:50.156Z,38
2023-04-27T13:58:49.778Z,40
2023-04-27T14:00:51.725Z,36
2023-04-27T14:05:12.785Z,39
2023-04-27T14:10:09.288Z,38
2023-04-27T14:15:09.158Z,36
2023-04-27T14:20:08.238Z,36
2023-04-27T14:25:07.851Z,38
2023-04-27T14:30:05.266Z,40
2023-04-27T14:35:05.394Z,37
2023-04-27T14:40:14.738Z,38
2023-04-27T14:46:12.352Z,37
2023-04-27T14:50:04.464Z,37
2023-04-27T14:55:15.034Z,36
2023-04-27T15:59:05.164Z,37
2023-04-27T16:04:05.376Z,38
2023-04-27T16:09:04.929Z,39
2023-04-27T16:14:06.005Z,39
2023-04-27T16:19:13.696Z,36
2023-04-27T16:24:12.399Z,36
2023-04-27T16:29:13.433Z,37
2023-04-27T16:34:10.209Z,37
2023-04-27T16:39:09.818Z,37
2023-04-27T16:44:11.028Z,37
2023-04-27T16:48:57.268Z,39
2023-04-27T16:53:57.158Z,39
2023-04-27T16:58:55.993Z,42
2023-04-27T17:03:55.950Z,42
2023-04-27T17:08:53.277Z,41
2023-04-27T17:13:52.885Z,42
2023-04-27T17:18:52.062Z,43
2023-04-27T17:23:51.738Z,43
2023-04-27T17:28:50.003Z,45
2023-04-27T17:33:50.107Z,47
2023-04-27T17:38:51.499Z,50
2023-04-27T17:43:48.661Z,50
2023-04-27T17:48:49.443Z,50
2023-04-27T17:53:48.163Z,53
2023-04-27T17:58:47.917Z,53
2023-04-27T18:05:09.346Z,55
2023-04-27T18:10:06.736Z,56
2023-04-27T18:15:08.715Z,56
2023-04-27T18:20:09.332Z,57
2023-04-27T18:25:04.951Z,56
2023-04-27T18:30:14.853Z,56
2023-04-27T18:35:14.814Z,56
2023-04-27T18:40:14.770Z,56
2023-04-27T18:45:15.349Z,58
2023-04-27T18:50:13.062Z,60
2023-04-27T18:55:12.048Z,62
2023-04-27T19:34:28.117Z,69
2023-04-27T19:59:10.901Z,73
2023-04-27T20:04:10.958Z,73
2023-04-27T20:14:09.387Z,74
2023-04-27T20:19:08.830Z,74
2023-04-27T20:29:08.338Z,74
2023-04-27T20:34:07.901Z,74
2023-04-27T20:44:07.035Z,73
2023-04-27T20:49:06.195Z,71
2023-04-27T20:54:05.957Z,70
2023-04-27T20:59:14.748Z,70
2023-04-27T21:04:14.965Z,71
2023-04-27T21:09:14.778Z,71
2023-04-27T21:14:13.542Z,71
2023-04-27T21:19:14.135Z,70
2023-04-27T21:24:18.783Z,70
2023-04-27T21:29:12.850Z,71
2023-04-27T21:34:12.561Z,70
2023-04-27T21:39:14.268Z,69
2023-04-27T21:44:10.883Z,68
2023-04-27T21:49:10.311Z,68
2023-04-27T21:54:10.334Z,67
2023-04-27T21:58:57.985Z,68
2023-04-27T22:03:57.924Z,67
2023-04-27T22:08:57.800Z,68
2023-04-27T22:13:58.521Z,68
2023-04-27T22:18:54.993Z,70
2023-04-27T22:23:55.059Z,69
2023-04-27T22:28:54.252Z,68
2023-04-27T22:33:54.073Z,69
2023-04-27T22:38:52.185Z,71
2023-04-27T22:43:51.945Z,71
2023-04-27T22:48:51.368Z,70
2023-04-27T22:53:50.819Z,70
2023-04-27T22:58:50.408Z,70
2023-04-27T23:03:50.297Z,71
2023-04-27T23:08:49.732Z,71
2023-04-27T23:13:49.615Z,71
2023-04-27T23:18:46.748Z,70
2023-04-27T23:23:46.446Z,69
2023-04-27T23:28:46.915Z,70
2023-04-27T23:33:46.211Z,71
2023-04-27T23:38:45.569Z,71
2023-04-27T23:43:45.668Z,72
2023-04-27T23:48:45.092Z,71
2023-04-27T23:53:44.867Z,70
2023-04-27T23:58:42.920Z,70
